Página principal
METAR-TAF:

METAR-TAF

Aeroportos :

Kunming, China

latitude: 25-01N, longitude: 102-41E, altura: 1892 m

Observação actual do tempo

O boletim foi feito há 11 minutos, às 00:00 UTC
Vento 10 kt de su-sudoeste
Temperatura 16°C
Humidade 94%
Pressão 1025 hPa
Visibilidade 10 km ou mais
Nuvens dispersasa uma altura de 2000 ft

METAR: ZPPP 200000Z 20005MPS 9999 SCT020 16/15 Q1025 NOSIG

Hora: 08:11 (00:11 UTC)

Previsão

O boletim foi feito há 4 horas e 57 minutos, às 19:14 UTC
Previsão válida de 20 às 00 UTC a 20 às 24 UTC
Vento 8 kt de su-sudoeste
Visibilidade 10 km ou mais
Nuvens dispersasa uma altura de 2300 ft
Nuvens fragmentadasa uma altura de 4000 ft

TAF: ZPPP 191914Z 2000/2024 21004MPS 9999 SCT023 BKN040 TX23/2008Z TN15/2023Z

Observações e previsões do tempo de mais de 4000 aeroportos (mensagens METAR e TAF).

As estações disponíveis são os pontos amarelos e vermelhos sobre o mapa.

Mova o rato sobre o mapa para ver o nome da estação.

Depois clique no ponto para visualizar as observações e previsões meteorológicas.

Para alterar o mapa : clique nos botões verdes com uma cruz preta para aumentar o zoom; no botão verde com uma pitada de zoom; ou nas setas verdes para mapas adjacentes.


METAR-TAF: